Time;durP1;ratioP1;P1;durP2;ratioP2;P2;SDS_P1;SDS_P2;PMS_P1;PMS_P2;Temp;Humidity;BMP_temperature;BMP_pressure;BME280_temperature;BME280_humidity;BME280_pressure;Samples;Min_cycle;Max_cycle;Signal;HPM_P1;HPM_P2
2023/03/05 00:01:46;;;;;;;8.23;3.30;;;3.40;99.90;;;;;;4992399;28;20046;-52
2023/03/05 00:04:32;;;;;;;12.05;3.30;;;3.40;99.90;;;;;;4993158;28;20046;-55
2023/03/05 00:07:18;;;;;;;16.55;3.40;;;3.40;99.90;;;;;;4993725;28;20034;-55
2023/03/05 00:10:05;;;;;;;13.75;2.80;;;3.60;99.90;;;;;;4995198;28;20073;-54
2023/03/05 00:12:51;;;;;;;11.90;2.78;;;3.50;99.90;;;;;;4995312;28;20031;-54
2023/03/05 00:15:41;;;;;;;8.65;3.20;;;3.40;99.90;;;;;;4980994;28;20034;-53
2023/03/05 00:18:27;;;;;;;10.52;3.33;;;3.30;99.90;;;;;;4994700;28;20114;-53
2023/03/05 00:21:20;;;;;;;9.82;2.88;;;3.30;99.90;;;;;;4975492;28;20086;-55
2023/03/05 00:24:10;;;;;;;9.20;2.80;;;3.30;99.90;;;;;;4977521;28;20495;-54
2023/03/05 00:26:56;;;;;;;8.93;2.50;;;3.20;99.90;;;;;;4994585;28;20027;-52
2023/03/05 00:29:42;;;;;;;8.43;2.67;;;3.20;99.90;;;;;;4995870;28;20035;-52
2023/03/05 00:32:28;;;;;;;11.02;3.00;;;3.20;99.90;;;;;;4994922;28;20030;-55
2023/03/05 00:35:14;;;;;;;6.43;2.92;;;3.30;99.90;;;;;;4994298;28;20427;-51
2023/03/05 00:38:00;;;;;;;12.73;2.88;;;3.20;99.90;;;;;;4994465;28;20030;-51
2023/03/05 00:40:49;;;;;;;5.88;2.40;;;3.30;99.90;;;;;;4993979;28;20085;-52
2023/03/05 00:43:35;;;;;;;10.10;2.92;;;3.30;99.90;;;;;;4994577;28;20053;-52
2023/03/05 00:46:22;;;;;;;10.52;3.00;;;3.20;99.90;;;;;;4992978;28;20070;-53
2023/03/05 00:49:08;;;;;;;7.68;2.83;;;3.10;99.90;;;;;;4991397;28;20035;-52
2023/03/05 00:51:53;;;;;;;8.52;3.35;;;3.10;99.90;;;;;;4987808;28;20031;-51
2023/03/05 00:54:39;;;;;;;10.48;3.47;;;3.10;99.90;;;;;;4996879;28;20026;-50
2023/03/05 00:57:25;;;;;;;15.15;3.30;;;3.20;99.90;;;;;;5013161;28;20030;-56
2023/03/05 01:00:13;;;;;;;8.02;3.10;;;3.10;99.90;;;;;;4997801;28;20062;-53
2023/03/05 01:02:59;;;;;;;10.85;3.20;;;3.20;99.90;;;;;;5001158;28;20034;-54
2023/03/05 01:05:45;;;;;;;13.27;2.90;;;3.10;99.90;;;;;;4994918;28;20038;-50
2023/03/05 01:08:31;;;;;;;9.48;3.63;;;3.10;99.90;;;;;;4993294;28;20034;-52
2023/03/05 01:11:17;;;;;;;6.38;2.63;;;3.00;99.90;;;;;;4994158;28;20395;-55
2023/03/05 01:14:03;;;;;;;6.13;2.80;;;3.10;99.90;;;;;;4993589;28;20026;-50
2023/03/05 01:16:49;;;;;;;8.18;3.00;;;3.20;99.90;;;;;;4994667;28;20062;-54
2023/03/05 01:19:35;;;;;;;8.02;2.60;;;3.20;99.90;;;;;;4991946;28;20031;-52
2023/03/05 01:22:21;;;;;;;8.48;2.42;;;3.20;99.90;;;;;;4991071;28;20030;-55
2023/03/05 01:25:07;;;;;;;10.10;3.13;;;3.10;99.90;;;;;;4989280;28;20029;-52
2023/03/05 01:27:53;;;;;;;8.07;2.97;;;3.00;99.90;;;;;;4985746;28;20050;-52
2023/03/05 01:30:39;;;;;;;8.45;2.83;;;3.10;99.90;;;;;;4982139;28;20026;-47
2023/03/05 01:33:25;;;;;;;9.98;3.08;;;3.10;99.90;;;;;;4987461;28;20042;-55
2023/03/05 01:36:15;;;;;;;11.38;3.25;;;3.00;99.90;;;;;;5001056;28;20026;-53
2023/03/05 01:39:01;;;;;;;8.20;3.22;;;3.00;99.90;;;;;;4991731;28;20023;-55
2023/03/05 01:41:47;;;;;;;9.00;3.05;;;3.00;99.90;;;;;;4986977;28;20526;-53
2023/03/05 01:44:33;;;;;;;10.73;3.35;;;2.80;99.90;;;;;;4996073;28;20563;-51
2023/03/05 01:47:19;;;;;;;10.77;2.80;;;2.90;99.90;;;;;;4994080;28;20514;-55
2023/03/05 01:50:09;;;;;;;7.60;3.53;;;2.90;99.90;;;;;;4983958;28;20604;-52
2023/03/05 01:53:01;;;;;;;7.22;3.20;;;3.00;99.90;;;;;;4995304;28;20034;-50
2023/03/05 01:55:47;;;;;;;8.88;3.22;;;3.00;99.90;;;;;;4993638;28;20022;-54
2023/03/05 01:58:33;;;;;;;14.30;4.00;;;3.00;99.90;;;;;;4992148;28;20030;-54
2023/03/05 02:01:19;;;;;;;9.90;3.90;;;3.00;99.90;;;;;;4992313;28;20077;-51
2023/03/05 02:04:08;;;;;;;12.52;3.83;;;3.00;99.90;;;;;;4991986;28;20113;-55
2023/03/05 02:06:54;;;;;;;10.75;3.78;;;3.00;99.90;;;;;;4993090;28;20049;-52
2023/03/05 02:09:41;;;;;;;9.68;3.90;;;3.00;99.90;;;;;;4993122;28;20109;-54
2023/03/05 02:12:27;;;;;;;13.55;4.38;;;3.10;99.90;;;;;;4992702;28;20026;-50
2023/03/05 02:15:12;;;;;;;8.63;3.67;;;2.90;99.90;;;;;;5001336;28;20042;-55
2023/03/05 02:18:00;;;;;;;9.52;3.85;;;2.90;99.90;;;;;;4992177;28;20109;-54
2023/03/05 02:20:55;;;;;;;11.43;4.07;;;2.70;99.90;;;;;;5068871;28;20437;-53
2023/03/05 02:23:41;;;;;;;10.13;4.25;;;2.60;99.90;;;;;;5052943;28;20387;-47
2023/03/05 02:26:27;;;;;;;10.15;4.25;;;2.70;99.90;;;;;;5048379;28;20446;-46
2023/03/05 02:29:17;;;;;;;8.15;3.53;;;2.70;99.90;;;;;;5047430;28;20036;-52
2023/03/05 02:32:03;;;;;;;11.48;4.00;;;2.70;99.90;;;;;;5048122;28;20643;-50
2023/03/05 02:34:49;;;;;;;11.32;4.78;;;2.50;99.90;;;;;;5047717;28;20041;-49
2023/03/05 02:37:35;;;;;;;6.60;3.97;;;2.70;99.90;;;;;;5080742;28;20547;-49
2023/03/05 02:40:21;;;;;;;11.50;4.25;;;2.70;99.90;;;;;;5068353;28;20025;-52
2023/03/05 02:43:08;;;;;;;12.15;4.50;;;2.50;99.90;;;;;;5067898;28;20115;-52
2023/03/05 02:45:54;;;;;;;10.38;4.15;;;2.60;99.90;;;;;;5088946;28;20058;-52
2023/03/05 02:48:40;;;;;;;10.00;4.95;;;2.60;99.90;;;;;;5075223;28;20035;-49
2023/03/05 02:51:26;;;;;;;11.82;4.47;;;2.70;99.90;;;;;;5053171;28;20135;-50
2023/03/05 02:54:12;;;;;;;9.15;4.32;;;2.70;99.90;;;;;;5068432;28;20021;-47
2023/03/05 02:56:58;;;;;;;9.45;3.90;;;2.80;99.90;;;;;;5078414;28;20029;-54
2023/03/05 02:59:45;;;;;;;10.77;4.78;;;2.80;99.90;;;;;;5066987;28;20039;-49
2023/03/05 03:02:31;;;;;;;8.85;3.75;;;2.70;99.90;;;;;;5067364;28;20501;-50
2023/03/05 03:05:17;;;;;;;8.43;3.65;;;2.70;99.90;;;;;;5066775;28;20519;-51
2023/03/05 03:08:03;;;;;;;8.00;3.67;;;2.80;99.90;;;;;;5064982;28;20043;-52
2023/03/05 03:10:49;;;;;;;8.82;3.90;;;2.90;99.90;;;;;;5064568;28;20025;-49
2023/03/05 03:13:35;;;;;;;10.38;4.15;;;2.80;99.90;;;;;;5069900;28;20086;-50
2023/03/05 03:16:21;;;;;;;8.95;3.40;;;2.70;99.90;;;;;;5069847;28;20489;-54
2023/03/05 03:19:07;;;;;;;10.80;3.63;;;2.70;99.90;;;;;;5067269;28;20029;-52
2023/03/05 03:21:53;;;;;;;8.15;3.55;;;2.90;99.90;;;;;;5066726;28;20040;-51
2023/03/05 03:24:41;;;;;;;4.13;2.78;;;2.90;99.90;;;;;;5067594;28;20532;-51
2023/03/05 03:27:27;;;;;;;8.18;3.35;;;2.80;99.90;;;;;;5076708;28;20119;-47
2023/03/05 03:30:14;;;;;;;5.78;3.40;;;2.70;99.90;;;;;;5066044;28;20447;-47
2023/03/05 03:33:00;;;;;;;5.07;2.90;;;2.80;99.90;;;;;;5054542;28;20041;-47
2023/03/05 03:35:46;;;;;;;9.90;3.90;;;2.90;99.90;;;;;;5067388;28;20040;-50
2023/03/05 03:38:32;;;;;;;7.78;3.30;;;2.90;99.90;;;;;;5053844;28;20029;-49
2023/03/05 03:41:18;;;;;;;5.88;3.00;;;2.80;99.90;;;;;;5054374;28;20030;-51
2023/03/05 03:44:06;;;;;;;8.40;3.35;;;2.90;99.90;;;;;;5073333;28;20040;-50
2023/03/05 03:46:53;;;;;;;7.90;3.33;;;2.80;99.90;;;;;;5043328;28;20039;-49
2023/03/05 03:49:39;;;;;;;5.82;3.45;;;2.70;99.90;;;;;;5054427;28;20029;-53
2023/03/05 03:52:26;;;;;;;7.93;3.20;;;2.80;99.90;;;;;;5053614;28;20461;-50
2023/03/05 03:55:12;;;;;;;10.95;3.83;;;2.80;99.90;;;;;;5072334;28;20081;-50
2023/03/05 03:57:57;;;;;;;6.22;3.63;;;2.80;99.90;;;;;;5034677;28;20030;-52
2023/03/05 04:00:43;;;;;;;11.32;4.03;;;2.80;99.90;;;;;;5038152;28;20063;-53
2023/03/05 04:03:29;;;;;;;7.13;3.20;;;2.80;99.90;;;;;;5072593;28;20130;-53
2023/03/05 04:06:15;;;;;;;8.73;4.10;;;2.90;99.90;;;;;;5054162;28;20029;-51
2023/03/05 04:09:02;;;;;;;8.40;3.40;;;2.90;99.90;;;;;;5052735;28;20025;-50
2023/03/05 04:11:47;;;;;;;8.35;3.95;;;2.80;99.90;;;;;;5052912;28;20028;-50
2023/03/05 04:14:33;;;;;;;8.05;3.33;;;2.90;99.90;;;;;;5068444;28;20108;-51
2023/03/05 04:17:19;;;;;;;6.05;2.80;;;2.80;99.90;;;;;;5053781;28;20055;-52
2023/03/05 04:20:09;;;;;;;11.85;3.17;;;2.70;99.90;;;;;;5052427;28;20047;-51
2023/03/05 04:22:55;;;;;;;5.82;2.72;;;2.70;99.90;;;;;;5073481;28;20023;-47
2023/03/05 04:25:41;;;;;;;7.28;3.08;;;2.80;99.90;;;;;;5060453;28;20053;-52
2023/03/05 04:28:27;;;;;;;7.57;3.28;;;2.80;99.90;;;;;;5052979;28;20028;-48
2023/03/05 04:31:13;;;;;;;7.47;3.10;;;2.70;99.90;;;;;;5053431;28;20033;-46
2023/03/05 04:33:59;;;;;;;7.50;3.13;;;2.80;99.90;;;;;;5053311;28;20041;-51
2023/03/05 04:36:45;;;;;;;8.48;3.20;;;2.80;99.90;;;;;;5053270;28;20115;-48
2023/03/05 04:39:31;;;;;;;6.30;2.90;;;2.80;99.90;;;;;;5052516;28;20532;-50
2023/03/05 04:42:18;;;;;;;5.90;2.70;;;2.80;99.90;;;;;;5033824;28;20029;-49
2023/03/05 04:45:06;;;;;;;5.43;2.78;;;2.90;99.90;;;;;;5048889;28;20029;-49
2023/03/05 04:47:52;;;;;;;6.63;2.53;;;2.70;99.90;;;;;;5056740;28;20017;-53
2023/03/05 04:50:38;;;;;;;8.85;3.70;;;2.70;99.90;;;;;;5033484;28;20448;-48
2023/03/05 04:53:24;;;;;;;4.57;2.10;;;2.80;99.90;;;;;;5036039;28;20030;-51
2023/03/05 04:56:10;;;;;;;5.50;2.53;;;2.70;99.90;;;;;;5052416;28;20795;-47
2023/03/05 04:58:56;;;;;;;7.05;2.45;;;2.80;99.90;;;;;;5052019;28;20032;-53
2023/03/05 05:01:42;;;;;;;4.75;2.72;;;2.90;99.90;;;;;;5053568;28;20033;-46
2023/03/05 05:04:28;;;;;;;9.48;3.40;;;2.90;99.90;;;;;;5032674;28;20626;-50
2023/03/05 05:07:15;;;;;;;7.60;2.97;;;2.80;99.90;;;;;;5036897;28;20033;-49
2023/03/05 05:10:01;;;;;;;5.90;2.72;;;2.70;99.90;;;;;;5052861;28;20091;-48
2023/03/05 05:12:46;;;;;;;9.15;2.90;;;2.70;99.90;;;;;;5052301;28;20063;-47
2023/03/05 05:15:32;;;;;;;6.75;2.95;;;2.90;99.90;;;;;;5056973;28;20029;-49
2023/03/05 05:18:19;;;;;;;6.70;3.30;;;2.80;99.90;;;;;;5053145;28;20059;-54
2023/03/05 05:21:09;;;;;;;8.98;3.30;;;2.90;99.90;;;;;;5051883;28;20045;-49
2023/03/05 05:23:55;;;;;;;10.60;3.42;;;2.80;99.90;;;;;;5051428;28;20032;-49
2023/03/05 05:26:41;;;;;;;9.02;3.28;;;2.70;99.90;;;;;;5051193;28;20025;-48
2023/03/05 05:29:27;;;;;;;3.78;2.75;;;2.70;99.90;;;;;;5032259;28;20037;-52
2023/03/05 05:32:13;;;;;;;3.58;2.33;;;2.80;99.90;;;;;;5046173;28;20035;-48
2023/03/05 05:34:59;;;;;;;7.75;2.63;;;2.80;99.90;;;;;;5052280;28;20033;-54
2023/03/05 05:37:44;;;;;;;6.40;2.63;;;2.60;99.90;;;;;;5052304;28;20029;-50
2023/03/05 05:40:30;;;;;;;4.32;2.20;;;2.60;99.90;;;;;;5051620;28;20033;-51
2023/03/05 05:43:16;;;;;;;3.58;2.50;;;2.60;99.90;;;;;;5032547;28;20508;-52
2023/03/05 05:46:05;;;;;;;8.15;3.22;;;2.70;99.90;;;;;;5034778;28;20775;-52
2023/03/05 05:48:51;;;;;;;7.43;3.03;;;2.80;99.90;;;;;;5051501;28;20028;-51
2023/03/05 05:51:37;;;;;;;6.55;3.30;;;2.80;99.90;;;;;;5063830;28;20017;-49
2023/03/05 05:54:23;;;;;;;9.07;3.35;;;2.70;99.90;;;;;;5051172;28;20489;-50
2023/03/05 05:57:08;;;;;;;6.57;3.40;;;3.00;99.90;;;;;;5052023;28;20033;-56
2023/03/05 05:59:54;;;;;;;9.70;4.43;;;3.00;99.90;;;;;;5043534;28;20029;-54
2023/03/05 06:02:42;;;;;;;8.05;3.70;;;2.80;99.90;;;;;;5052700;28;20029;-49
2023/03/05 06:05:28;;;;;;;7.72;3.72;;;2.90;99.90;;;;;;5045336;28;20532;-48
2023/03/05 06:08:14;;;;;;;9.65;3.83;;;2.70;99.90;;;;;;5051849;28;20131;-51
2023/03/05 06:11:00;;;;;;;9.55;3.80;;;2.60;99.90;;;;;;5051088;28;20532;-50
2023/03/05 06:13:47;;;;;;;6.88;3.20;;;2.60;99.90;;;;;;5050600;28;20789;-50
2023/03/05 06:16:33;;;;;;;8.40;4.22;;;2.80;99.90;;;;;;5050952;28;20029;-49
2023/03/05 06:19:19;;;;;;;8.95;4.05;;;2.60;99.90;;;;;;5070625;28;20029;-49
2023/03/05 06:22:05;;;;;;;8.75;3.60;;;2.50;99.90;;;;;;5052695;28;20029;-55
2023/03/05 06:24:51;;;;;;;9.15;3.45;;;2.50;99.90;;;;;;5050862;28;20052;-50
2023/03/05 06:27:38;;;;;;;11.88;3.40;;;2.60;99.90;;;;;;5030801;28;20022;-51
2023/03/05 06:30:24;;;;;;;10.13;3.70;;;2.60;99.90;;;;;;5047834;28;20060;-52
2023/03/05 06:33:10;;;;;;;6.00;3.20;;;2.80;99.90;;;;;;5055674;28;20043;-54
2023/03/05 06:35:56;;;;;;;9.80;4.10;;;2.70;99.90;;;;;;5062642;28;20048;-50
2023/03/05 06:38:42;;;;;;;9.10;3.63;;;2.60;99.90;;;;;;5050207;28;20151;-53
2023/03/05 06:41:29;;;;;;;10.13;3.28;;;2.70;99.90;;;;;;5051993;28;20053;-51
2023/03/05 06:44:15;;;;;;;10.50;4.07;;;2.70;99.90;;;;;;5051802;28;20104;-53
2023/03/05 06:47:03;;;;;;;9.50;3.78;;;2.70;99.90;;;;;;5050810;28;20025;-49
2023/03/05 06:49:49;;;;;;;8.65;3.85;;;2.70;99.90;;;;;;5052205;28;20079;-48
2023/03/05 06:52:35;;;;;;;12.93;3.70;;;2.80;99.90;;;;;;5051375;28;20036;-49
2023/03/05 06:55:21;;;;;;;8.07;3.80;;;2.80;99.90;;;;;;5052203;28;20029;-52
2023/03/05 06:58:07;;;;;;;13.07;4.60;;;2.90;99.90;;;;;;5050518;28;20022;-50
2023/03/05 07:00:52;;;;;;;7.25;3.95;;;2.90;99.90;;;;;;5050944;28;20030;-50
2023/03/05 07:03:39;;;;;;;8.93;3.85;;;3.00;99.90;;;;;;5050691;28;20553;-49
2023/03/05 07:06:28;;;;;;;8.00;3.38;;;2.90;99.90;;;;;;5051071;28;20120;-54
2023/03/05 07:09:15;;;;;;;9.98;3.83;;;2.90;99.90;;;;;;5053424;28;20033;-51
2023/03/05 07:12:01;;;;;;;10.98;4.30;;;2.80;99.90;;;;;;5053321;28;20504;-53
2023/03/05 07:14:47;;;;;;;13.10;4.60;;;2.80;99.90;;;;;;5054967;28;20037;-51
2023/03/05 07:17:33;;;;;;;10.98;4.38;;;2.80;99.90;;;;;;5054208;28;20025;-50
2023/03/05 07:20:19;;;;;;;12.82;5.07;;;2.70;99.90;;;;;;5034973;28;20036;-49
2023/03/05 07:23:05;;;;;;;12.18;4.20;;;2.80;99.90;;;;;;5050084;28;20033;-52
2023/03/05 07:25:51;;;;;;;8.60;4.38;;;2.80;99.90;;;;;;5054902;28;20027;-49
2023/03/05 07:28:37;;;;;;;10.57;4.93;;;2.80;99.90;;;;;;5054474;28;20040;-53
2023/03/05 07:31:30;;;;;;;10.10;5.13;;;2.80;99.90;;;;;;5055336;28;20074;-49
2023/03/05 07:34:16;;;;;;;11.40;4.55;;;2.90;99.90;;;;;;5073421;28;20024;-52
2023/03/05 07:37:02;;;;;;;8.77;4.32;;;2.90;99.90;;;;;;5056367;28;20116;-50
2023/03/05 07:39:48;;;;;;;8.75;4.00;;;3.00;99.90;;;;;;5039151;28;20396;-54
2023/03/05 07:42:34;;;;;;;11.02;4.45;;;3.10;99.90;;;;;;5053242;28;20531;-51
2023/03/05 07:45:20;;;;;;;10.65;5.07;;;3.00;99.90;;;;;;5053833;28;20103;-48
2023/03/05 07:48:06;;;;;;;8.77;4.45;;;3.10;99.90;;;;;;5053854;28;20029;-49
2023/03/05 07:51:03;;;;;;;7.28;4.30;;;3.10;99.90;;;;;;5054201;28;20489;-52
2023/03/05 07:53:50;;;;;;;10.82;5.00;;;3.30;99.90;;;;;;5054123;28;20382;-53
2023/03/05 07:56:36;;;;;;;10.75;4.85;;;3.30;99.90;;;;;;5052984;28;20096;-54
2023/03/05 07:59:22;;;;;;;10.90;4.45;;;3.40;99.90;;;;;;5037853;28;20497;-50
2023/03/05 08:02:11;;;;;;;11.52;5.00;;;3.60;99.90;;;;;;5066902;28;20556;-49
2023/03/05 08:04:57;;;;;;;9.43;4.75;;;3.50;99.90;;;;;;5051823;28;20032;-49
2023/03/05 08:07:43;;;;;;;7.97;4.65;;;3.50;99.90;;;;;;5053441;28;20025;-47
2023/03/05 08:10:29;;;;;;;8.10;4.80;;;3.40;99.90;;;;;;5066051;28;20024;-50
2023/03/05 08:13:15;;;;;;;8.05;4.07;;;3.50;99.90;;;;;;5070672;28;20036;-53
2023/03/05 08:16:06;;;;;;;10.35;4.50;;;3.60;99.90;;;;;;5054675;28;20083;-51
2023/03/05 08:18:56;;;;;;;7.65;4.43;;;3.80;99.90;;;;;;5052827;28;20108;-49
2023/03/05 08:21:42;;;;;;;7.38;4.60;;;3.80;99.90;;;;;;5052016;28;20025;-50
2023/03/05 08:24:28;;;;;;;9.65;4.85;;;3.90;99.90;;;;;;5055109;28;20040;-47
2023/03/05 08:27:14;;;;;;;8.95;4.15;;;4.00;99.90;;;;;;5053187;28;20151;-50
2023/03/05 08:30:01;;;;;;;6.38;3.88;;;4.10;99.90;;;;;;5053704;28;20105;-49
2023/03/05 08:32:48;;;;;;;5.80;4.00;;;4.00;99.90;;;;;;5053064;28;20057;-54
2023/03/05 08:35:34;;;;;;;6.60;3.75;;;3.90;99.90;;;;;;5053742;28;20029;-50
2023/03/05 08:38:20;;;;;;;6.55;4.47;;;4.00;99.90;;;;;;5053014;28;20032;-49
2023/03/05 08:41:06;;;;;;;8.30;4.25;;;4.10;99.90;;;;;;5051757;28;20115;-49
2023/03/05 08:43:52;;;;;;;7.53;4.00;;;4.10;99.90;;;;;;5052415;28;20029;-50
2023/03/05 08:46:39;;;;;;;10.23;3.72;;;4.20;99.90;;;;;;5051286;28;20094;-49
2023/03/05 08:49:25;;;;;;;6.85;4.45;;;4.00;99.90;;;;;;5052640;28;20063;-50
2023/03/05 08:52:11;;;;;;;9.95;4.97;;;3.90;99.90;;;;;;5052889;28;20075;-52
2023/03/05 08:54:57;;;;;;;7.38;4.07;;;4.00;99.90;;;;;;5053892;28;20025;-52
2023/03/05 08:57:43;;;;;;;9.52;4.20;;;4.20;99.90;;;;;;5053181;28;20037;-51
2023/03/05 09:00:29;;;;;;;6.20;3.63;;;4.10;99.90;;;;;;5052534;28;20036;-52
2023/03/05 09:03:15;;;;;;;5.15;3.53;;;4.10;99.90;;;;;;5052721;28;20025;-51
2023/03/05 09:06:03;;;;;;;6.93;3.95;;;4.30;99.90;;;;;;5051437;28;20021;-48
2023/03/05 09:08:49;;;;;;;8.20;3.35;;;4.60;99.90;;;;;;5051324;28;20039;-52
2023/03/05 09:11:36;;;;;;;5.22;3.40;;;4.40;99.90;;;;;;5049647;28;20398;-51
2023/03/05 09:14:22;;;;;;;4.63;2.95;;;4.20;99.90;;;;;;5049846;28;20108;-52
2023/03/05 09:17:08;;;;;;;4.50;3.15;;;4.20;99.90;;;;;;5049334;28;20481;-48
2023/03/05 09:19:53;;;;;;;7.40;2.97;;;4.20;99.90;;;;;;5035781;28;20041;-47
2023/03/05 09:22:40;;;;;;;8.73;3.45;;;4.30;99.90;;;;;;5050401;28;20029;-49
2023/03/05 09:25:26;;;;;;;9.57;4.18;;;4.30;99.90;;;;;;5036005;28;20446;-51
2023/03/05 09:28:12;;;;;;;9.05;3.83;;;4.20;99.90;;;;;;5034520;28;20059;-54
2023/03/05 09:31:02;;;;;;;6.95;4.57;;;4.20;99.90;;;;;;5049799;28;20018;-53
2023/03/05 09:33:48;;;;;;;9.05;5.10;;;4.20;99.90;;;;;;5050471;28;20040;-55
2023/03/05 09:36:34;;;;;;;9.32;4.60;;;4.30;99.90;;;;;;5050174;28;20032;-52
2023/03/05 09:39:20;;;;;;;10.68;5.40;;;4.20;99.90;;;;;;5049301;28;20025;-51
2023/03/05 09:42:27;;;;;;;8.05;5.50;;;4.30;99.90;;;;;;5036503;28;20029;-52
2023/03/05 09:45:25;;;;;;;7.20;4.85;;;4.20;99.90;;;;;;5051114;28;20021;-53
2023/03/05 09:48:19;;;;;;;5.43;4.10;;;4.50;99.90;;;;;;5055267;28;20033;-44
2023/03/05 09:51:12;;;;;;;8.23;4.40;;;4.50;99.90;;;;;;5057658;28;20028;-50
2023/03/05 09:54:12;;;;;;;6.57;3.78;;;4.70;99.90;;;;;;5057395;28;20013;-47
2023/03/05 09:57:03;;;;;;;10.73;4.13;;;4.70;99.90;;;;;;5059215;28;20032;-43
2023/03/05 09:59:53;;;;;;;7.78;5.10;;;4.70;99.90;;;;;;5043066;28;20068;-52
2023/03/05 10:02:49;;;;;;;6.82;4.35;;;4.40;99.90;;;;;;5050673;28;20040;-46
2023/03/05 10:05:57;;;;;;;8.23;4.72;;;4.30;99.90;;;;;;5048841;28;20013;-53
2023/03/05 10:08:50;;;;;;;11.63;5.53;;;4.20;99.90;;;;;;5048577;28;20021;-50
2023/03/05 10:12:07;;;;;;;9.07;5.00;;;4.00;99.90;;;;;;5049590;28;20114;-42
2023/03/05 10:14:53;;;;;;;7.20;4.85;;;4.20;99.90;;;;;;5048994;28;21604;-46
2023/03/05 10:18:15;;;;;;;10.63;5.53;;;4.20;99.90;;;;;;5043878;28;20032;-50
2023/03/05 10:21:23;;;;;;;6.93;5.05;;;4.20;99.90;;;;;;5049771;28;20366;-53
2023/03/05 10:24:40;;;;;;;7.38;5.03;;;4.00;99.90;;;;;;5049302;28;20029;-45
2023/03/05 10:27:44;;;;;;;6.95;4.47;;;3.90;99.90;;;;;;5048352;28;20100;-47
2023/03/05 10:30:58;;;;;;;8.27;5.03;;;4.00;99.90;;;;;;5047667;28;20108;-47
2023/03/05 10:34:09;;;;;;;9.05;5.20;;;4.20;99.90;;;;;;5051258;28;20025;-47
2023/03/05 10:37:04;;;;;;;9.15;5.75;;;4.20;99.90;;;;;;5048926;28;20540;-42
2023/03/05 10:40:24;;;;;;;9.40;4.72;;;4.30;99.90;;;;;;5049863;28;20041;-47
2023/03/05 10:43:25;;;;;;;7.55;5.00;;;4.40;99.90;;;;;;5054543;28;20032;-52
2023/03/05 10:46:17;;;;;;;7.10;4.72;;;4.60;99.90;;;;;;5061969;28;20036;-47
2023/03/05 10:49:19;;;;;;;5.38;4.63;;;4.60;99.90;;;;;;5061456;28;20052;-45
2023/03/05 10:52:14;;;;;;;7.65;4.70;;;4.60;99.90;;;;;;5054350;28;20017;-47
2023/03/05 10:55:01;;;;;;;6.18;4.25;;;4.80;99.90;;;;;;5057029;28;20029;-48
2023/03/05 10:57:47;;;;;;;5.88;4.55;;;4.80;99.90;;;;;;5035895;28;20029;-48
2023/03/05 11:00:33;;;;;;;6.35;3.83;;;4.60;99.90;;;;;;5049010;28;20073;-45
2023/03/05 11:03:19;;;;;;;6.40;4.65;;;4.50;99.90;;;;;;5055929;28;20032;-46
2023/03/05 11:06:05;;;;;;;9.35;5.25;;;4.40;99.90;;;;;;5044067;28;20123;-61
2023/03/05 11:08:51;;;;;;;7.32;4.95;;;4.50;99.90;;;;;;5053413;28;20075;-47
2023/03/05 11:11:37;;;;;;;9.63;4.47;;;4.40;99.90;;;;;;5059402;28;20103;-51
2023/03/05 11:14:30;;;;;;;7.90;4.22;;;4.50;99.90;;;;;;5048283;28;20119;-49
2023/03/05 11:17:43;;;;;;;8.13;4.32;;;4.50;99.90;;;;;;5047894;28;20055;-49
2023/03/05 11:20:32;;;;;;;6.90;4.47;;;4.50;99.90;;;;;;5041948;28;20132;-51
2023/03/05 11:23:23;;;;;;;8.65;4.35;;;4.50;99.90;;;;;;5040105;28;20382;-43
2023/03/05 11:26:12;;;;;;;8.63;4.88;;;4.40;99.90;;;;;;5055673;28;20428;-45
2023/03/05 11:29:01;;;;;;;7.13;4.53;;;4.50;99.90;;;;;;5055822;28;20032;-54
2023/03/05 11:31:47;;;;;;;5.85;3.65;;;4.60;99.90;;;;;;5054975;28;20037;-49
2023/03/05 11:34:34;;;;;;;6.88;4.30;;;4.50;99.90;;;;;;5053009;28;20029;-54
2023/03/05 11:37:32;;;;;;;5.57;4.38;;;4.50;99.90;;;;;;5053254;28;20037;-46
2023/03/05 11:40:23;;;;;;;6.30;4.65;;;4.40;99.90;;;;;;5047767;28;20033;-53
2023/03/05 11:43:15;;;;;;;6.97;3.83;;;4.50;99.90;;;;;;5054501;28;20516;-46
2023/03/05 11:46:04;;;;;;;7.93;4.10;;;4.50;99.90;;;;;;5044843;28;20059;-44
2023/03/05 11:48:53;;;;;;;5.60;3.60;;;4.50;99.90;;;;;;5057219;28;20033;-47
2023/03/05 11:51:44;;;;;;;6.00;3.90;;;4.60;99.90;;;;;;5053098;28;20035;-54
2023/03/05 11:54:39;;;;;;;6.53;3.80;;;4.40;99.90;;;;;;5056263;28;20535;-46
2023/03/05 11:57:27;;;;;;;4.28;3.17;;;4.50;99.90;;;;;;5054300;28;20025;-46
2023/03/05 12:00:17;;;;;;;6.32;3.53;;;4.30;99.90;;;;;;5052040;28;20033;-51
2023/03/05 12:03:09;;;;;;;2.78;2.42;;;4.20;99.90;;;;;;5050826;28;20082;-45
2023/03/05 12:06:16;;;;;;;5.13;2.58;;;4.00;99.90;;;;;;5051127;28;20390;-47
2023/03/05 12:09:12;;;;;;;4.07;2.90;;;3.70;99.90;;;;;;5049781;28;20121;-45
2023/03/05 12:12:41;;;;;;;4.13;2.40;;;3.50;99.90;;;;;;5052868;28;20091;-45
2023/03/05 12:16:07;;;;;;;5.75;3.20;;;3.70;99.90;;;;;;5007936;28;20032;-50
2023/03/05 12:19:24;;;;;;;3.95;2.47;;;3.60;99.90;;;;;;5037531;28;20032;-48
2023/03/05 12:22:36;;;;;;;3.20;2.53;;;3.90;99.90;;;;;;5051573;28;20021;-51
2023/03/05 12:25:29;;;;;;;2.78;2.28;;;4.20;99.90;;;;;;5052002;28;20144;-44
2023/03/05 12:28:35;;;;;;;6.03;2.72;;;4.60;99.90;;;;;;5052763;28;20023;-51
2023/03/05 12:31:44;;;;;;;4.10;2.78;;;4.80;99.90;;;;;;5052254;28;20040;-45
2023/03/05 12:34:46;;;;;;;4.43;2.53;;;5.00;99.90;;;;;;5038338;28;20509;-46
2023/03/05 12:37:31;;;;;;;5.03;2.88;;;5.10;99.90;;;;;;5051708;28;20133;-49
2023/03/05 12:40:25;;;;;;;3.60;2.75;;;5.40;99.90;;;;;;5052074;28;20033;-53
2023/03/05 12:43:28;;;;;;;5.10;3.08;;;5.70;99.90;;;;;;5049498;28;20029;-50
2023/03/05 12:46:22;;;;;;;6.18;2.80;;;5.70;99.90;;;;;;5041898;28;20033;-46
2023/03/05 12:49:17;;;;;;;6.70;3.60;;;5.70;99.90;;;;;;5054389;28;20043;-49
2023/03/05 12:52:04;;;;;;;3.80;3.00;;;5.70;99.90;;;;;;5049648;28;20044;-46
2023/03/05 12:55:02;;;;;;;5.13;3.65;;;5.50;99.90;;;;;;5051372;28;20071;-55
2023/03/05 12:58:02;;;;;;;5.70;3.72;;;5.40;99.90;;;;;;5049948;28;20116;-48
2023/03/05 13:00:56;;;;;;;7.53;3.58;;;5.30;99.90;;;;;;5056335;28;20043;-50
2023/03/05 13:03:51;;;;;;;5.07;3.42;;;5.40;99.90;;;;;;5054052;28;20041;-54
2023/03/05 13:06:38;;;;;;;5.30;3.85;;;5.30;99.90;;;;;;5051454;28;20329;-46
2023/03/05 13:09:27;;;;;;;7.38;4.22;;;5.30;99.90;;;;;;5052690;28;20037;-45
2023/03/05 13:12:13;;;;;;;6.68;4.55;;;5.40;99.90;;;;;;5055734;28;20064;-48
2023/03/05 13:15:07;;;;;;;9.73;4.53;;;5.30;99.90;;;;;;5051853;28;20029;-48
2023/03/05 13:17:59;;;;;;;5.05;3.30;;;5.00;99.90;;;;;;5051285;28;20033;-50
2023/03/05 13:20:49;;;;;;;3.92;2.70;;;5.10;99.90;;;;;;5048170;28;20057;-52
2023/03/05 13:23:35;;;;;;;3.38;2.30;;;5.00;99.90;;;;;;5023418;28;20312;-55
2023/03/05 13:26:21;;;;;;;3.53;2.58;;;4.90;99.90;;;;;;5045908;28;20025;-53
2023/03/05 13:29:19;;;;;;;3.17;2.30;;;4.80;99.90;;;;;;5046800;28;20032;-50
2023/03/05 13:32:26;;;;;;;4.53;2.72;;;5.00;99.90;;;;;;5037128;28;20022;-52
2023/03/05 13:35:13;;;;;;;3.15;2.50;;;5.10;99.90;;;;;;5038221;28;20393;-58
2023/03/05 13:38:00;;;;;;;6.28;2.53;;;5.20;99.90;;;;;;5030476;28;20033;-54
2023/03/05 13:41:20;;;;;;;3.72;2.40;;;5.10;99.90;;;;;;5064010;28;20095;-55
2023/03/05 13:44:20;;;;;;;3.83;2.40;;;5.10;99.90;;;;;;5064370;28;20021;-53
2023/03/05 13:47:18;;;;;;;2.72;2.33;;;5.20;99.90;;;;;;5061134;28;20017;-56
2023/03/05 13:50:07;;;;;;;3.40;2.40;;;5.20;99.90;;;;;;5052383;28;20505;-54
2023/03/05 13:52:54;;;;;;;3.42;2.67;;;5.30;99.90;;;;;;5052800;28;20036;-54
2023/03/05 13:55:40;;;;;;;4.95;2.70;;;5.30;99.90;;;;;;5037294;28;20100;-52
2023/03/05 13:58:48;;;;;;;5.25;3.05;;;5.20;99.40;;;;;;5042105;28;20040;-53
2023/03/05 14:01:42;;;;;;;4.18;3.05;;;5.20;99.70;;;;;;5050440;28;20041;-55
2023/03/05 14:04:35;;;;;;;6.95;3.10;;;5.10;99.80;;;;;;5050094;28;20013;-55
2023/03/05 14:07:31;;;;;;;3.72;3.08;;;5.20;99.80;;;;;;5040537;28;20029;-58
2023/03/05 14:10:34;;;;;;;5.65;3.05;;;5.10;99.90;;;;;;5064876;28;20358;-52
2023/03/05 14:13:23;;;;;;;5.57;3.13;;;5.20;99.80;;;;;;5050696;28;20106;-54
2023/03/05 14:16:14;;;;;;;4.75;2.90;;;5.10;99.70;;;;;;5051933;28;20497;-55
2023/03/05 14:19:06;;;;;;;4.05;2.80;;;5.00;99.30;;;;;;5057422;28;20037;-55
2023/03/05 14:21:52;;;;;;;4.05;2.83;;;4.90;99.70;;;;;;5061171;28;20111;-57
2023/03/05 14:24:37;;;;;;;4.13;2.50;;;5.00;99.20;;;;;;5050665;28;20048;-58
2023/03/05 14:27:24;;;;;;;4.25;2.80;;;5.00;99.30;;;;;;5043523;28;20021;-54
2023/03/05 14:30:18;;;;;;;6.03;2.85;;;5.20;99.30;;;;;;5057410;28;20037;-55
2023/03/05 14:33:04;;;;;;;5.15;2.80;;;5.30;99.30;;;;;;5052802;28;20032;-55
2023/03/05 14:35:51;;;;;;;5.05;2.83;;;5.30;98.80;;;;;;5050741;28;20413;-53
2023/03/05 14:38:42;;;;;;;4.35;2.40;;;5.20;99.40;;;;;;5051381;28;20052;-56
2023/03/05 14:41:33;;;;;;;6.65;2.95;;;5.50;99.80;;;;;;5050752;28;20033;-56
2023/03/05 14:44:19;;;;;;;3.67;2.47;;;5.50;98.80;;;;;;5049633;28;20505;-54
2023/03/05 14:47:05;;;;;;;8.07;2.90;;;5.30;99.20;;;;;;5048092;28;20053;-51
2023/03/05 14:49:52;;;;;;;4.25;2.42;;;5.10;99.90;;;;;;5045018;28;20500;-53
2023/03/05 14:52:38;;;;;;;5.03;2.78;;;5.00;99.90;;;;;;5047936;28;20540;-55